CheckWX is a tool to help pilots better visualize weather data.  It is not intended as a substitute for an official pre-flight weather briefing.

03:17:21 UTC

ENNM METAR
Namsos Høknesøra Airport
Namsos, Norway
Current

8 hours ago

ENNM 261920Z 25008KT 9999 FEW030 BKN060 06/02 Q1001
Observed
May-26 @ 19:20 UTC
Wind
  • 250° at 8 KTS
Visibility
10,000+ meters
Flight Rules
VFR
Cloud Levels
  • Few at 3,000' AGL
  • Broken at 6,000' AGL
Temperature
C / 43°F
Dewpoint
C / 36°F
Humidity
76%
Altimeter
29.56" Hg
Pressure
1000.92 hPa
Previous

8 hours ago

ENNM 261850Z 24007KT 9999 FEW030 BKN050 07/02 Q1001
Observed
May-26 @ 18:50 UTC
Wind
  • 240° at 7 KTS
Visibility
10,000+ meters
Flight Rules
VFR
Cloud Levels
  • Few at 3,000' AGL
  • Broken at 5,000' AGL
Temperature
C / 45°F
Dewpoint
C / 36°F
Humidity
71%
Altimeter
29.56" Hg
Pressure
1000.92 hPa
Previous

9 hours ago

ENNM 261820Z 25010KT 9999 FEW022 FEW030 BKN050 01/02 Q1001
Observed
May-26 @ 18:20 UTC
Wind
  • 250° at 10 KTS
Visibility
10,000+ meters
Flight Rules
VFR
Cloud Levels
  • Few at 2,200' AGL
  • Few at 3,000' AGL
  • Broken at 5,000' AGL
Temperature
C / 34°F
Dewpoint
C / 36°F
Humidity
107%
Altimeter
29.56" Hg
Pressure
1000.92 hPa